This is the latest recevied weather packets stored in our database for station/object DG5MG. If no packets are shown the sender has not sent any weather packets the latest 10 day(s).
| Time | Temp. | Humidity | Pressure | Rain* | Wind** | Luminosity | Snow |
|---|---|---|---|---|---|---|---|
| 1777894205 | 23.89° C | 43% | 1017.6 hPa | 0 mm | - | 1289 W/m² | - |
| 1777893006 | 23.89° C | 43% | 1017.9 hPa | 0 mm | - | 1284 W/m² | - |
| 1777891806 | 23.33° C | 43% | 1018.3 hPa | 0 mm | - | 1265 W/m² | - |
| 1777891505 | 23.89° C | 42% | 1018.3 hPa | 0 mm | - | 1258 W/m² | - |
| 1777890005 | 23.33° C | 42% | 1019 hPa | 0 mm | - | 1210 W/m² | - |
| 1777886105 | 21.11° C | 45% | 1019.3 hPa | 0 mm | - | 998 W/m² | - |
| 1777885805 | 21.11° C | 46% | 1019.3 hPa | 0 mm | - | 977 W/m² | - |
| 1777885505 | 21.11° C | 47% | 1019.3 hPa | 0 mm | - | 956 W/m² | - |
| 1777884005 | 21.11° C | 47% | 1019.6 hPa | 0 mm | - | 845 W/m² | - |
| 1777882806 | 20° C | 49% | 1019.6 hPa | 0 mm | - | 750 W/m² | - |
| 1777880705 | 20.56° C | 48% | 1020 hPa | 0 mm | - | 578 W/m² | - |
| 1777878005 | 19.44° C | 50% | 1020 hPa | 0 mm | - | 360 W/m² | - |
| 1777876205 | 18.33° C | 57% | 1020 hPa | 0 mm | - | 227 W/m² | - |
| 1777875304 | 17.22° C | 57% | 1020 hPa | 0 mm | - | 166 W/m² | - |
| 1777870504 | 11.67° C | 79% | 1020.3 hPa | 0 mm | - | 0 W/m² | - |
| 1777868105 | 11.67° C | 79% | 1020.3 hPa | 0 mm | - | 0 W/m² | - |
| 1777863905 | 12.78° C | 73% | 1020.3 hPa | 0 mm | - | 0 W/m² | - |
| 1777862104 | 13.33° C | 66% | 1020.7 hPa | 0 mm | - | 0 W/m² | - |
| 1777861204 | 13.33° C | 66% | 1020.5 hPa | 0 mm | - | 0 W/m² | - |
| 1777857305 | 14.44° C | 64% | 1020.7 hPa | 0 mm | - | 0 W/m² | - |
| 1777856104 | 14.44° C | 64% | 1020.7 hPa | 0 mm | - | 0 W/m² | - |
| 1777853105 | 15.56° C | 64% | 1020.3 hPa | 0 mm | - | 0 W/m² | - |
| 1777850404 | 15.56° C | 64% | 1020 hPa | 0 mm | - | 0 W/m² | - |
| 1777849204 | 16.11° C | 62% | 1019.6 hPa | 0 mm | - | 0 W/m² | - |
| 1777848905 | 16.11° C | 61% | 1019.6 hPa | 0 mm | - | 0 W/m² | - |
* Rain latest hour (hover to see other rain measurements)
** Current wind speed in m/s (hover to see current wind gust speed)